createdAt,value
2023-03-23T15:58:49.014Z,57.23
2023-03-23T16:01:19.153Z,57.60
2023-03-23T16:04:08.311Z,58.05
2023-03-23T16:06:36.020Z,58.46
2023-03-23T16:09:03.969Z,57.60
2023-03-23T16:11:31.817Z,58.13
2023-03-23T16:13:59.635Z,58.47
2023-03-23T16:16:29.704Z,58.79
2023-03-23T16:18:56.317Z,58.15
2023-03-23T16:21:23.061Z,58.43
2023-03-23T16:23:49.572Z,59.71
2023-03-23T16:26:16.829Z,60.92
2023-03-23T16:28:44.179Z,61.98
2023-03-23T16:31:11.211Z,62.21
2023-03-23T16:33:38.033Z,64.13
2023-03-23T16:36:05.276Z,64.79
2023-03-23T16:38:31.823Z,66.29
2023-03-23T16:40:58.356Z,69.40
2023-03-23T16:43:24.945Z,71.84
2023-03-23T16:45:55.726Z,71.31
2023-03-23T16:48:22.893Z,71.03
2023-03-23T16:50:49.617Z,70.38
2023-03-23T16:53:16.366Z,73.04
2023-03-23T16:55:47.704Z,72.13
2023-03-23T16:58:17.304Z,69.60
2023-03-23T17:00:49.502Z,71.17
2023-03-23T17:03:17.659Z,72.66
2023-03-23T17:05:45.296Z,73.27
2023-03-23T17:08:12.537Z,74.87
2023-03-23T17:10:41.079Z,73.77
2023-03-23T17:13:08.528Z,75.54
2023-03-23T17:15:40.204Z,76.11
2023-03-23T17:18:07.315Z,76.40
2023-03-23T17:20:34.776Z,77.78
2023-03-23T17:23:01.911Z,77.16
2023-03-23T17:25:30.613Z,77.58
2023-03-23T17:27:57.860Z,78.70
2023-03-23T17:30:32.652Z,78.57
2023-03-23T17:32:59.165Z,78.59
2023-03-23T17:35:25.637Z,79.05
2023-03-23T17:37:52.133Z,78.28
2023-03-23T17:40:18.752Z,77.81
2023-03-23T17:42:45.393Z,77.78
2023-03-23T17:45:11.908Z,78.25
2023-03-23T17:47:38.629Z,77.71
2023-03-23T17:50:11.238Z,75.88
2023-03-23T17:52:39.562Z,75.26
2023-03-23T17:55:06.693Z,76.59
2023-03-23T17:57:33.433Z,77.35
2023-03-23T17:59:59.860Z,76.26
2023-03-23T18:02:26.396Z,76.10
2023-03-23T18:04:52.856Z,75.49
2023-03-23T18:07:23.340Z,76.01
2023-03-23T18:09:50.952Z,75.96
2023-03-23T18:12:18.264Z,75.79
2023-03-23T18:14:44.744Z,76.50
2023-03-23T18:17:11.261Z,77.28
2023-03-23T18:19:37.848Z,77.48
2023-03-23T18:22:04.383Z,78.10
2023-03-23T18:24:30.880Z,79.32
2023-03-23T18:26:57.305Z,79.29
2023-03-23T18:29:23.780Z,78.80
2023-03-23T18:31:50.500Z,78.79
2023-03-23T18:34:17.136Z,80.03
2023-03-23T18:36:43.568Z,80.61
2023-03-23T18:39:12.886Z,79.86
2023-03-23T18:41:39.427Z,79.83
2023-03-23T18:44:06.225Z,79.71
2023-03-23T18:46:32.914Z,77.61
2023-03-23T18:48:59.485Z,76.25
2023-03-23T18:51:26.180Z,75.92
2023-03-23T18:53:52.827Z,74.91
2023-03-23T18:56:19.351Z,75.69
2023-03-23T18:58:46.364Z,75.69
2023-03-23T19:01:16.642Z,74.59
2023-03-23T19:03:43.722Z,75.84
2023-03-23T19:06:16.344Z,75.38
2023-03-23T19:08:43.269Z,75.56
2023-03-23T19:11:12.696Z,76.46
2023-03-23T19:13:44.426Z,76.28
2023-03-23T19:16:17.308Z,76.21
2023-03-23T19:18:43.821Z,75.73
2023-03-23T19:21:15.639Z,75.65
2023-03-23T19:23:43.486Z,76.38
2023-03-23T19:26:21.699Z,76.37
2023-03-23T19:29:21.486Z,76.15
2023-03-23T19:31:34.603Z,78.35
2023-03-23T19:34:01.220Z,77.94
2023-03-23T19:36:27.668Z,77.77
2023-03-23T19:38:57.790Z,78.34
2023-03-23T19:41:29.539Z,78.25
2023-03-23T19:43:56.060Z,79.38
2023-03-23T19:46:23.196Z,79.94
2023-03-23T19:48:50.735Z,79.76
2023-03-23T19:51:19.567Z,79.93
2023-03-23T19:53:46.402Z,79.58
2023-03-23T19:56:15.575Z,79.75
2023-03-23T19:58:42.357Z,80.05
2023-03-23T20:01:09.140Z,79.95
2023-03-23T20:03:36.475Z,79.72
2023-03-23T20:06:07.051Z,80.57
2023-03-23T20:08:33.749Z,81.11
2023-03-23T20:11:05.540Z,81.83
2023-03-23T20:13:32.738Z,82.69
2023-03-23T20:16:00.620Z,82.57
2023-03-23T20:18:29.154Z,82.66
2023-03-23T20:21:04.482Z,82.60
2023-03-23T20:23:31.432Z,82.50
2023-03-23T20:25:59.808Z,81.43
2023-03-23T20:28:27.205Z,81.42
2023-03-23T20:31:24.802Z,80.92
2023-03-23T20:34:01.902Z,81.51
2023-03-23T20:36:40.172Z,82.14
2023-03-23T20:39:10.499Z,83.35
2023-03-23T20:41:38.805Z,82.93
2023-03-23T20:44:07.458Z,83.04
2023-03-23T20:46:34.950Z,82.12
2023-03-23T20:49:02.080Z,81.24
2023-03-23T20:51:28.696Z,80.61
2023-03-23T20:53:55.610Z,80.49
2023-03-23T20:56:22.618Z,80.62
2023-03-23T20:58:49.161Z,80.29
2023-03-23T21:01:15.646Z,78.82
2023-03-23T21:03:42.458Z,79.54
2023-03-23T21:06:10.105Z,78.54
2023-03-23T21:08:39.100Z,79.83
2023-03-23T21:11:08.939Z,80.27
2023-03-23T21:13:35.517Z,79.83
2023-03-23T21:16:04.264Z,79.11
2023-03-23T21:18:32.013Z,78.10
2023-03-23T21:21:00.265Z,77.90
2023-03-23T21:23:29.427Z,77.32
2023-03-23T21:26:01.677Z,79.65
2023-03-23T21:28:28.445Z,80.89
2023-03-23T21:30:59.182Z,81.31
2023-03-23T21:33:26.012Z,83.45
2023-03-23T21:35:52.583Z,84.28
2023-03-23T21:38:19.804Z,83.18
2023-03-23T21:40:46.819Z,84.54
2023-03-23T21:43:14.136Z,85.99
2023-03-23T21:45:45.414Z,86.55
2023-03-23T21:48:13.282Z,84.75
2023-03-23T21:50:44.332Z,85.06
2023-03-23T21:53:18.285Z,85.51
2023-03-23T21:55:51.725Z,85.98
2023-03-23T21:58:20.609Z,87.34
2023-03-23T22:00:49.975Z,90.21
2023-03-23T22:03:22.593Z,90.98
2023-03-23T22:05:56.448Z,93.38
2023-03-23T22:08:25.223Z,91.33
2023-03-23T22:11:01.121Z,94.31
2023-03-23T22:13:30.277Z,93.17
2023-03-23T22:15:58.425Z,92.24
2023-03-23T22:18:25.007Z,91.98
2023-03-23T22:20:52.088Z,90.55
2023-03-23T22:23:18.600Z,91.99
2023-03-23T22:25:45.219Z,93.41
2023-03-23T22:28:11.681Z,92.85
2023-03-23T22:30:38.282Z,93.15
2023-03-23T22:33:04.746Z,94.08
2023-03-23T22:35:33.530Z,92.97
2023-03-23T22:38:02.988Z,91.92
2023-03-23T22:40:32.592Z,91.99
2023-03-23T22:42:59.166Z,91.40
2023-03-23T22:45:27.247Z,92.14
2023-03-23T22:47:53.858Z,92.20
2023-03-23T22:50:21.589Z,90.27
2023-03-23T22:52:48.209Z,91.30
2023-03-23T22:55:15.855Z,90.96
2023-03-23T22:57:42.586Z,91.84
2023-03-23T23:00:14.484Z,92.16
2023-03-23T23:02:42.630Z,90.15
2023-03-23T23:05:11.022Z,90.60
2023-03-23T23:07:37.787Z,90.55
2023-03-23T23:10:05.161Z,91.15
2023-03-23T23:12:31.711Z,90.15
2023-03-23T23:14:58.719Z,89.82
2023-03-23T23:17:26.513Z,90.72
2023-03-23T23:19:53.412Z,90.86
2023-03-23T23:22:20.044Z,89.94
2023-03-23T23:24:46.702Z,88.39
2023-03-23T23:27:13.229Z,89.35
2023-03-23T23:29:40.530Z,89.91
2023-03-23T23:32:07.172Z,87.46
2023-03-23T23:34:34.763Z,87.65
2023-03-23T23:37:01.337Z,87.73
2023-03-23T23:39:27.843Z,87.94
2023-03-23T23:41:55.407Z,88.96
2023-03-23T23:44:22.775Z,88.05
2023-03-23T23:46:49.258Z,89.56
2023-03-23T23:49:15.816Z,87.37
2023-03-23T23:51:42.345Z,88.81
2023-03-23T23:54:09.705Z,85.42
2023-03-23T23:56:36.279Z,84.06
2023-03-23T23:59:02.895Z,84.63
